Time;durP1;ratioP1;P1;durP2;ratioP2;P2;SDS_P1;SDS_P2;PMS_P1;PMS_P2;Temp;Humidity;BMP_temperature;BMP_pressure;BME280_temperature;BME280_humidity;BME280_pressure;Samples;Min_cycle;Max_cycle;Signal;HPM_P1;HPM_P2
2021/09/12 00:00:59;;;;;;;17.73;15.57;;;;;;;;;;4965213;28;20650;-83
2021/09/12 00:04:03;;;;;;;16.47;14.60;;;;;;;;;;4964678;28;20288;-82
2021/09/12 00:07:07;;;;;;;18.10;16.20;;;;;;;;;;4953800;28;20712;-84
2021/09/12 00:10:12;;;;;;;19.27;16.30;;;;;;;;;;4954260;28;20178;-83
2021/09/12 00:13:17;;;;;;;21.43;15.37;;;;;;;;;;4954210;28;20185;-83
2021/09/12 00:16:21;;;;;;;17.00;13.37;;;;;;;;;;4963133;28;20190;-84
2021/09/12 00:19:25;;;;;;;17.03;14.27;;;;;;;;;;4943500;28;20194;-83
2021/09/12 00:22:29;;;;;;;19.50;14.17;;;;;;;;;;4963963;28;20178;-84
2021/09/12 00:25:33;;;;;;;18.50;14.37;;;;;;;;;;4953625;28;20182;-84
2021/09/12 00:28:37;;;;;;;17.93;13.67;;;;;;;;;;4964150;28;20245;-84
2021/09/12 00:31:41;;;;;;;21.67;13.57;;;;;;;;;;4941984;28;20187;-84
2021/09/12 00:34:45;;;;;;;17.47;13.90;;;;;;;;;;4942135;28;20201;-84
2021/09/12 00:37:50;;;;;;;15.10;13.47;;;;;;;;;;4965043;28;20238;-82
2021/09/12 00:40:59;;;;;;;17.33;13.70;;;;;;;;;;4964680;28;20190;-83
2021/09/12 00:44:04;;;;;;;15.80;13.90;;;;;;;;;;4956610;28;20218;-84
2021/09/12 00:47:13;;;;;;;15.40;13.80;;;;;;;;;;4993672;28;20232;-84
2021/09/12 00:50:17;;;;;;;17.93;14.87;;;;;;;;;;4964218;28;20189;-85
2021/09/12 00:53:22;;;;;;;15.30;13.70;;;;;;;;;;4986233;28;20185;-85
2021/09/12 00:56:28;;;;;;;14.07;12.57;;;;;;;;;;4964870;28;20186;-83
2021/09/12 00:59:36;;;;;;;14.10;12.60;;;;;;;;;;4987581;28;20541;-85
2021/09/12 01:02:42;;;;;;;13.67;12.27;;;;;;;;;;4976203;28;20199;-84
2021/09/12 01:05:54;;;;;;;15.17;11.63;;;;;;;;;;4966844;28;20183;-85
2021/09/12 01:08:59;;;;;;;16.17;12.47;;;;;;;;;;4958222;28;20202;-83
2021/09/12 01:12:04;;;;;;;12.73;11.43;;;;;;;;;;4978191;28;20199;-85
2021/09/12 01:15:09;;;;;;;17.07;13.07;;;;;;;;;;4976861;28;20182;-83
2021/09/12 01:18:13;;;;;;;14.37;12.87;;;;;;;;;;4974584;28;20242;-83
2021/09/12 01:21:20;;;;;;;15.00;13.10;;;;;;;;;;4964965;28;20209;-83
2021/09/12 01:24:25;;;;;;;14.13;12.50;;;;;;;;;;4977261;28;20605;-85
2021/09/12 01:27:30;;;;;;;12.33;11.03;;;;;;;;;;4986748;28;20715;-83
2021/09/12 01:30:34;;;;;;;14.53;12.60;;;;;;;;;;4987756;28;20204;-85
2021/09/12 01:33:38;;;;;;;14.33;12.77;;;;;;;;;;4963789;28;20214;-83
2021/09/12 01:36:42;;;;;;;15.23;13.43;;;;;;;;;;4963825;28;20244;-85
2021/09/12 01:39:47;;;;;;;18.70;13.30;;;;;;;;;;4966845;28;20653;-83
2021/09/12 01:42:51;;;;;;;16.57;12.77;;;;;;;;;;4967158;28;20194;-83
2021/09/12 01:45:55;;;;;;;18.90;12.90;;;;;;;;;;4955228;28;20204;-83
2021/09/12 01:49:03;;;;;;;13.30;11.90;;;;;;;;;;4956340;28;20555;-83
2021/09/12 01:52:12;;;;;;;13.03;11.63;;;;;;;;;;4954940;28;20191;-85
2021/09/12 01:55:16;;;;;;;12.70;11.43;;;;;;;;;;4956883;28;20188;-83
2021/09/12 01:58:20;;;;;;;16.60;12.07;;;;;;;;;;4956595;28;20231;-83
2021/09/12 02:01:25;;;;;;;13.90;11.13;;;;;;;;;;4977399;28;20202;-83
2021/09/12 02:04:29;;;;;;;15.53;11.53;;;;;;;;;;4978661;28;20237;-83
2021/09/12 02:07:33;;;;;;;13.70;11.80;;;;;;;;;;4976932;28;20218;-83
2021/09/12 02:10:37;;;;;;;16.37;12.50;;;;;;;;;;4954769;28;20187;-83
2021/09/12 02:13:43;;;;;;;14.80;13.03;;;;;;;;;;4965642;28;20187;-83
2021/09/12 02:16:47;;;;;;;15.97;12.90;;;;;;;;;;4974135;28;20256;-83
2021/09/12 02:19:52;;;;;;;15.87;12.70;;;;;;;;;;4966224;28;20195;-83
2021/09/12 02:22:56;;;;;;;18.50;13.20;;;;;;;;;;4989652;28;20194;-83
2021/09/12 02:26:00;;;;;;;17.47;12.77;;;;;;;;;;4965618;28;20186;-83
2021/09/12 02:29:05;;;;;;;17.27;12.97;;;;;;;;;;4965666;28;20186;-83
2021/09/12 02:32:09;;;;;;;16.43;12.33;;;;;;;;;;4965108;28;20209;-83
2021/09/12 02:35:13;;;;;;;13.80;12.30;;;;;;;;;;4965036;28;20179;-83
2021/09/12 02:38:17;;;;;;;15.57;12.37;;;;;;;;;;4976555;28;20233;-83
2021/09/12 02:41:21;;;;;;;13.70;12.10;;;;;;;;;;4976378;28;20275;-83
2021/09/12 02:44:25;;;;;;;17.97;12.17;;;;;;;;;;4977396;28;20227;-82
2021/09/12 02:47:29;;;;;;;14.90;12.43;;;;;;;;;;4975724;28;20230;-83
2021/09/12 02:50:34;;;;;;;14.83;13.17;;;;;;;;;;4964979;28;20550;-83
2021/09/12 02:53:38;;;;;;;13.07;11.63;;;;;;;;;;4962967;28;20197;-83
2021/09/12 02:56:42;;;;;;;17.50;12.47;;;;;;;;;;4984975;28;20229;-83
2021/09/12 02:59:46;;;;;;;14.37;11.87;;;;;;;;;;4971077;28;20205;-83
2021/09/12 03:02:50;;;;;;;15.33;12.53;;;;;;;;;;4984892;28;20193;-83
2021/09/12 03:05:55;;;;;;;15.87;12.70;;;;;;;;;;4961067;28;20224;-83
2021/09/12 03:08:59;;;;;;;14.60;12.37;;;;;;;;;;4984547;28;20197;-83
2021/09/12 03:12:04;;;;;;;15.47;12.97;;;;;;;;;;4973485;28;20194;-83
2021/09/12 03:15:08;;;;;;;18.30;14.27;;;;;;;;;;4964034;28;20300;-85
2021/09/12 03:18:13;;;;;;;20.27;12.87;;;;;;;;;;4952865;28;20234;-83
2021/09/12 03:21:18;;;;;;;17.87;12.57;;;;;;;;;;4976031;28;20201;-83
2021/09/12 03:24:22;;;;;;;15.37;13.20;;;;;;;;;;4944617;28;20221;-83
2021/09/12 03:27:26;;;;;;;17.27;12.87;;;;;;;;;;4957486;28;20223;-83
2021/09/12 03:30:30;;;;;;;15.73;13.00;;;;;;;;;;4984418;28;20692;-85
2021/09/12 03:33:35;;;;;;;16.37;11.93;;;;;;;;;;4962659;28;20198;-85
2021/09/12 03:36:39;;;;;;;14.63;12.67;;;;;;;;;;4973540;28;20225;-83
2021/09/12 03:39:44;;;;;;;14.30;12.60;;;;;;;;;;4974126;28;20178;-83
2021/09/12 03:42:47;;;;;;;16.50;12.87;;;;;;;;;;4984956;28;20193;-84
2021/09/12 03:45:55;;;;;;;16.33;13.07;;;;;;;;;;4971878;28;20218;-85
2021/09/12 03:48:59;;;;;;;14.87;13.27;;;;;;;;;;4972673;28;20182;-85
2021/09/12 03:52:04;;;;;;;21.13;13.20;;;;;;;;;;4984094;28;20178;-82
2021/09/12 03:55:09;;;;;;;20.50;13.50;;;;;;;;;;4954064;28;20186;-83
2021/09/12 03:58:13;;;;;;;14.80;12.80;;;;;;;;;;4941817;28;20221;-85
2021/09/12 04:01:17;;;;;;;15.90;13.93;;;;;;;;;;4964175;28;20190;-84
2021/09/12 04:04:21;;;;;;;18.17;13.13;;;;;;;;;;4949601;28;20213;-83
2021/09/12 04:07:25;;;;;;;15.83;12.53;;;;;;;;;;4952441;28;20740;-85
2021/09/12 04:10:29;;;;;;;18.00;13.93;;;;;;;;;;4952742;28;20191;-85
2021/09/12 04:13:34;;;;;;;16.90;12.93;;;;;;;;;;4963814;28;20195;-83
2021/09/12 04:16:38;;;;;;;14.33;12.60;;;;;;;;;;4986651;28;20242;-83
2021/09/12 04:19:42;;;;;;;16.03;12.50;;;;;;;;;;4987066;28;20198;-85
2021/09/12 04:22:46;;;;;;;17.00;12.87;;;;;;;;;;4956356;28;20189;-85
2021/09/12 04:25:50;;;;;;;16.50;12.63;;;;;;;;;;4955907;28;20225;-85
2021/09/12 04:28:54;;;;;;;16.10;13.27;;;;;;;;;;4956467;28;20207;-83
2021/09/12 04:31:59;;;;;;;13.83;11.80;;;;;;;;;;4945870;28;20215;-85
2021/09/12 04:35:03;;;;;;;16.60;13.10;;;;;;;;;;4945322;28;20651;-84
2021/09/12 04:38:08;;;;;;;15.10;13.13;;;;;;;;;;4978443;28;20233;-85
2021/09/12 04:41:15;;;;;;;17.57;14.40;;;;;;;;;;4972509;28;20197;-84
2021/09/12 04:44:22;;;;;;;16.10;13.63;;;;;;;;;;4972023;28;20581;-83
2021/09/12 04:47:26;;;;;;;18.53;14.03;;;;;;;;;;4967050;28;20297;-83
2021/09/12 04:50:30;;;;;;;17.00;15.00;;;;;;;;;;4943699;28;20258;-83
2021/09/12 04:53:34;;;;;;;18.03;14.13;;;;;;;;;;4954244;28;20573;-83
2021/09/12 04:56:40;;;;;;;17.60;14.23;;;;;;;;;;4967324;28;20229;-83
2021/09/12 04:59:44;;;;;;;17.90;13.83;;;;;;;;;;4984200;28;20178;-85
2021/09/12 05:02:49;;;;;;;16.97;13.40;;;;;;;;;;4973648;28;20193;-84
2021/09/12 05:05:53;;;;;;;17.77;13.37;;;;;;;;;;4962246;28;20225;-84
2021/09/12 05:08:58;;;;;;;18.67;13.13;;;;;;;;;;4983149;28;20209;-83
2021/09/12 05:12:02;;;;;;;17.87;13.40;;;;;;;;;;4972278;28;20189;-83
2021/09/12 05:15:07;;;;;;;16.33;13.57;;;;;;;;;;4960845;28;20209;-83
2021/09/12 05:18:12;;;;;;;14.90;12.50;;;;;;;;;;4970903;28;20241;-83
2021/09/12 05:21:18;;;;;;;15.20;13.00;;;;;;;;;;4973985;28;20688;-84
2021/09/12 05:24:22;;;;;;;15.23;12.40;;;;;;;;;;4973183;28;20206;-84
2021/09/12 05:27:26;;;;;;;14.33;12.10;;;;;;;;;;4973071;28;20291;-84
2021/09/12 05:30:30;;;;;;;12.47;11.17;;;;;;;;;;4973072;28;20557;-84
2021/09/12 05:33:34;;;;;;;13.40;11.10;;;;;;;;;;4972986;28;20181;-84
2021/09/12 05:36:39;;;;;;;13.67;11.90;;;;;;;;;;4984160;28;20221;-83
2021/09/12 05:39:43;;;;;;;14.83;11.13;;;;;;;;;;4973283;28;20189;-83
2021/09/12 05:42:47;;;;;;;18.43;13.80;;;;;;;;;;4972725;28;20684;-84
2021/09/12 05:45:52;;;;;;;14.23;12.73;;;;;;;;;;4982803;28;20222;-86
2021/09/12 05:48:56;;;;;;;13.87;11.63;;;;;;;;;;4961263;28;20530;-87
2021/09/12 05:52:00;;;;;;;15.83;10.73;;;;;;;;;;4983930;28;20206;-88
2021/09/12 05:55:04;;;;;;;12.87;10.43;;;;;;;;;;4972539;28;20193;-85
2021/09/12 05:58:09;;;;;;;16.07;10.27;;;;;;;;;;4960350;28;20573;-86
2021/09/12 06:01:14;;;;;;;17.43;9.57;;;;;;;;;;4972826;28;20654;-87
2021/09/12 06:04:18;;;;;;;12.77;8.57;;;;;;;;;;4971842;28;20182;-86
2021/09/12 06:07:22;;;;;;;13.30;9.27;;;;;;;;;;4960194;28;20226;-86
2021/09/12 06:10:26;;;;;;;13.97;9.50;;;;;;;;;;4960564;28;20190;-86
2021/09/12 06:13:30;;;;;;;14.77;10.93;;;;;;;;;;4971561;28;20186;-85
2021/09/12 06:16:35;;;;;;;13.80;10.17;;;;;;;;;;4971464;28;20232;-84
2021/09/12 06:19:39;;;;;;;12.33;9.87;;;;;;;;;;4971094;28;20601;-85
2021/09/12 06:22:48;;;;;;;13.57;9.90;;;;;;;;;;4971013;28;20174;-85
2021/09/12 06:25:52;;;;;;;16.13;10.77;;;;;;;;;;4959868;28;20214;-90
2021/09/12 06:28:57;;;;;;;20.83;13.13;;;;;;;;;;4971952;28;20194;-83
2021/09/12 06:32:01;;;;;;;14.47;12.83;;;;;;;;;;4995167;28;20824;-83
2021/09/12 06:35:06;;;;;;;16.60;14.07;;;;;;;;;;4971632;28;20205;-83
2021/09/12 06:38:10;;;;;;;14.57;13.03;;;;;;;;;;4971333;28;20229;-83
2021/09/12 06:41:14;;;;;;;20.27;12.70;;;;;;;;;;4959014;28;20193;-83
2021/09/12 06:44:18;;;;;;;17.17;11.63;;;;;;;;;;5016665;23;20594;-82
2021/09/12 06:47:22;;;;;;;14.17;12.47;;;;;;;;;;5011820;28;20203;-84
2021/09/12 06:50:27;;;;;;;13.60;12.03;;;;;;;;;;5002842;28;20212;-83
2021/09/12 06:53:31;;;;;;;13.60;11.60;;;;;;;;;;4981917;28;20580;-82
2021/09/12 06:56:35;;;;;;;12.97;10.70;;;;;;;;;;4992839;28;20199;-82
2021/09/12 06:59:39;;;;;;;16.93;11.57;;;;;;;;;;5023890;28;20212;-81
2021/09/12 07:02:44;;;;;;;13.40;10.57;;;;;;;;;;5012678;28;20554;-82
2021/09/12 07:05:48;;;;;;;13.20;9.53;;;;;;;;;;5036239;28;20220;-82
2021/09/12 07:08:52;;;;;;;12.07;10.70;;;;;;;;;;5013241;28;20204;-82
2021/09/12 07:11:56;;;;;;;15.87;10.77;;;;;;;;;;5001391;28;20185;-82
2021/09/12 07:15:00;;;;;;;15.70;13.10;;;;;;;;;;5023865;28;20229;-82
2021/09/12 07:18:04;;;;;;;16.60;13.83;;;;;;;;;;5024145;28;20177;-82
2021/09/12 07:21:09;;;;;;;16.40;14.67;;;;;;;;;;5023476;28;20181;-82
2021/09/12 07:24:13;;;;;;;18.67;13.40;;;;;;;;;;5023310;28;20232;-82
2021/09/12 07:27:17;;;;;;;13.00;11.50;;;;;;;;;;5023751;28;20687;-82
2021/09/12 07:30:21;;;;;;;12.20;10.97;;;;;;;;;;5023799;28;20193;-82
2021/09/12 07:33:25;;;;;;;14.17;11.60;;;;;;;;;;5013255;28;20220;-81
2021/09/12 07:36:29;;;;;;;15.63;11.10;;;;;;;;;;5024660;28;20180;-81
2021/09/12 07:39:34;;;;;;;10.83;9.43;;;;;;;;;;5002306;28;20187;-82
2021/09/12 07:42:37;;;;;;;13.10;10.07;;;;;;;;;;5013374;28;20623;-82
2021/09/12 07:45:41;;;;;;;13.23;9.97;;;;;;;;;;5013165;28;20204;-82
2021/09/12 07:48:46;;;;;;;11.37;8.70;;;;;;;;;;5013000;28;20177;-82
2021/09/12 07:51:50;;;;;;;10.37;8.60;;;;;;;;;;5012959;28;20204;-82
2021/09/12 07:54:54;;;;;;;9.93;8.57;;;;;;;;;;5014910;28;20595;-82
2021/09/12 07:57:59;;;;;;;9.93;8.93;;;;;;;;;;5013853;28;20196;-82
2021/09/12 08:01:03;;;;;;;9.40;8.50;;;;;;;;;;5014042;28;20188;-82
2021/09/12 08:04:08;;;;;;;9.67;8.60;;;;;;;;;;5012592;28;20323;-82
2021/09/12 08:07:12;;;;;;;9.43;8.03;;;;;;;;;;5012908;28;20230;-82
2021/09/12 08:10:16;;;;;;;9.37;8.03;;;;;;;;;;5024146;28;20193;-82
2021/09/12 08:13:21;;;;;;;9.63;8.63;;;;;;;;;;5036163;28;20172;-82
2021/09/12 08:16:25;;;;;;;10.07;8.27;;;;;;;;;;5012728;28;20196;-82
2021/09/12 08:19:29;;;;;;;9.93;8.50;;;;;;;;;;5036322;28;20201;-82
2021/09/12 08:22:33;;;;;;;9.10;8.20;;;;;;;;;;5012811;28;20185;-82
2021/09/12 08:25:38;;;;;;;9.93;7.83;;;;;;;;;;5013101;28;20208;-82
2021/09/12 08:28:41;;;;;;;8.00;7.20;;;;;;;;;;5024028;28;20188;-82
2021/09/12 08:31:46;;;;;;;7.53;6.80;;;;;;;;;;5013818;28;20185;-82
2021/09/12 08:34:50;;;;;;;7.97;7.17;;;;;;;;;;5024596;28;20216;-82
2021/09/12 08:37:55;;;;;;;8.10;6.90;;;;;;;;;;5025039;28;20197;-82
2021/09/12 08:41:00;;;;;;;7.50;6.30;;;;;;;;;;5013495;28;20181;-82
2021/09/12 08:44:04;;;;;;;7.10;6.03;;;;;;;;;;5013580;28;20224;-82
2021/09/12 08:47:08;;;;;;;8.87;7.10;;;;;;;;;;5030167;28;20212;-82
2021/09/12 08:50:13;;;;;;;9.60;8.20;;;;;;;;;;5004153;28;20184;-82
2021/09/12 08:53:17;;;;;;;7.60;6.30;;;;;;;;;;5012953;28;20201;-82
2021/09/12 08:56:21;;;;;;;6.60;6.00;;;;;;;;;;5024032;28;20172;-82
2021/09/12 08:59:28;;;;;;;7.73;6.43;;;;;;;;;;5023812;28;20181;-82
2021/09/12 09:02:32;;;;;;;8.53;6.00;;;;;;;;;;5013037;28;20520;-82
2021/09/12 09:05:42;;;;;;;6.93;5.93;;;;;;;;;;5027697;28;20185;-82
2021/09/12 09:08:59;;;;;;;5.40;4.90;;;;;;;;;;5027400;28;20181;-82
2021/09/12 09:12:26;;;;;;;6.30;4.17;;;;;;;;;;5027444;28;20185;-82
2021/09/12 09:15:31;;;;;;;4.53;3.40;;;;;;;;;;5015824;28;20180;-82
2021/09/12 09:18:40;;;;;;;4.63;3.60;;;;;;;;;;5027502;28;20189;-82
2021/09/12 09:21:47;;;;;;;5.20;3.90;;;;;;;;;;5016874;28;20198;-82
2021/09/12 09:24:57;;;;;;;5.93;2.80;;;;;;;;;;5040599;28;20226;-83
2021/09/12 09:28:07;;;;;;;3.63;3.23;;;;;;;;;;5027447;28;20195;-82
2021/09/12 09:31:11;;;;;;;8.43;3.30;;;;;;;;;;5004475;28;20198;-83
2021/09/12 09:34:18;;;;;;;3.38;3.08;;;;;;;;;;5016510;28;20226;-83
2021/09/12 09:37:22;;;;;;;3.90;3.35;;;;;;;;;;5026645;28;20203;-82
2021/09/12 09:40:26;;;;;;;3.63;3.17;;;;;;;;;;5015265;28;20184;-82
2021/09/12 09:43:44;;;;;;;3.13;2.83;;;;;;;;;;5026579;28;20226;-83
2021/09/12 09:46:48;;;;;;;2.83;2.58;;;;;;;;;;5014459;28;20217;-82
2021/09/12 09:50:07;;;;;;;3.28;2.97;;;;;;;;;;5015781;28;20189;-82
2021/09/12 09:53:12;;;;;;;2.55;2.35;;;;;;;;;;5027595;28;20192;-83
2021/09/12 09:56:17;;;;;;;6.07;3.80;;;;;;;;;;5016718;28;20188;-83
2021/09/12 09:59:23;;;;;;;6.45;2.75;;;;;;;;;;5016601;28;20524;-83
2021/09/12 10:02:27;;;;;;;3.25;2.95;;;;;;;;;;5027752;28;20176;-83
2021/09/12 10:05:32;;;;;;;3.30;2.80;;;;;;;;;;5027720;28;20180;-83
2021/09/12 10:08:36;;;;;;;4.13;3.58;;;;;;;;;;5028505;28;20652;-83
2021/09/12 10:11:45;;;;;;;8.82;3.97;;;;;;;;;;5006311;28;20178;-83
2021/09/12 10:14:55;;;;;;;5.03;3.65;;;;;;;;;;5016870;28;20222;-83
2021/09/12 10:18:01;;;;;;;7.15;3.42;;;;;;;;;;5040093;28;20178;-83
2021/09/12 10:21:23;;;;;;;2.83;2.63;;;;;;;;;;5026903;28;20196;-82
2021/09/12 10:24:31;;;;;;;2.85;2.53;;;;;;;;;;5015281;28;20219;-83
2021/09/12 10:27:42;;;;;;;2.83;2.50;;;;;;;;;;5015590;28;20208;-82
2021/09/12 10:30:46;;;;;;;6.10;3.72;;;;;;;;;;5014181;28;20186;-83
2021/09/12 10:34:04;;;;;;;5.03;3.22;;;;;;;;;;5026299;28;20217;-83
2021/09/12 10:37:31;;;;;;;3.70;3.35;;;;;;;;;;5025710;28;20178;-83
2021/09/12 10:40:50;;;;;;;4.38;3.97;;;;;;;;;;5016096;28;20175;-82
2021/09/12 10:43:54;;;;;;;3.65;2.92;;;;;;;;;;5014256;28;20227;-83
2021/09/12 10:47:06;;;;;;;4.85;2.67;;;;;;;;;;5025390;28;20208;-83
2021/09/12 10:50:36;;;;;;;4.25;2.65;;;;;;;;;;5014499;28;20179;-83
2021/09/12 10:53:43;;;;;;;13.43;3.13;;;;;;;;;;5025129;28;20703;-82
2021/09/12 10:57:03;;;;;;;5.25;2.70;;;;;;;;;;5014193;28;20179;-83
2021/09/12 11:00:08;;;;;;;3.47;2.55;;;;;;;;;;5026127;28;20189;-83
2021/09/12 11:03:17;;;;;;;2.83;2.35;;;;;;;;;;5014423;28;20207;-83
2021/09/12 11:06:21;;;;;;;6.55;2.65;;;;;;;;;;5003614;28;20201;-83
2021/09/12 11:09:27;;;;;;;3.83;2.78;;;;;;;;;;5003885;28;20190;-83
2021/09/12 11:12:32;;;;;;;3.55;3.17;;;;;;;;;;5025619;28;20192;-83
2021/09/12 11:15:37;;;;;;;3.22;2.60;;;;;;;;;;5002850;28;20194;-83
2021/09/12 11:18:54;;;;;;;2.70;2.50;;;;;;;;;;5015355;28;20182;-83
2021/09/12 11:21:59;;;;;;;3.03;2.30;;;;;;;;;;5003284;28;20189;-82
2021/09/12 11:25:04;;;;;;;3.10;2.83;;;;;;;;;;5025535;28;20213;-83
2021/09/12 11:28:08;;;;;;;3.33;2.60;;;;;;;;;;5013649;28;20206;-82
2021/09/12 11:31:12;;;;;;;4.15;3.22;;;;;;;;;;5025340;28;20179;-82
2021/09/12 11:34:18;;;;;;;9.30;3.00;;;;;;;;;;5038186;28;20221;-82
2021/09/12 11:37:23;;;;;;;11.77;3.08;;;;;;;;;;5014230;28;20178;-82
2021/09/12 11:40:27;;;;;;;2.83;2.63;;;;;;;;;;5024384;28;20176;-82
2021/09/12 11:43:31;;;;;;;4.82;2.70;;;;;;;;;;5023750;28;20565;-83
2021/09/12 11:46:41;;;;;;;7.60;3.08;;;;;;;;;;5025233;28;20213;-83
2021/09/12 11:49:59;;;;;;;4.00;2.20;;;;;;;;;;5014150;28;20186;-83
2021/09/12 11:53:10;;;;;;;12.32;2.95;;;;;;;;;;5025769;28;20189;-83
2021/09/12 11:56:14;;;;;;;2.50;2.30;;;;;;;;;;5014001;28;20200;-82
2021/09/12 11:59:18;;;;;;;3.15;2.60;;;;;;;;;;5013190;28;20181;-82
2021/09/12 12:02:24;;;;;;;2.78;2.30;;;;;;;;;;5013230;28;20186;-83
2021/09/12 12:05:30;;;;;;;3.70;2.72;;;;;;;;;;5024377;28;20186;-82
2021/09/12 12:08:35;;;;;;;2.67;2.35;;;;;;;;;;5002409;28;20206;-82
2021/09/12 12:11:42;;;;;;;3.50;2.85;;;;;;;;;;5025267;28;20183;-82
2021/09/12 12:14:51;;;;;;;3.55;2.65;;;;;;;;;;5013683;28;20221;-82
2021/09/12 12:17:55;;;;;;;2.97;2.53;;;;;;;;;;5014507;28;20183;-82
2021/09/12 12:21:10;;;;;;;3.42;2.75;;;;;;;;;;5013428;28;20192;-82
2021/09/12 12:24:19;;;;;;;5.72;2.80;;;;;;;;;;5036420;28;20245;-82
2021/09/12 12:27:24;;;;;;;9.52;3.28;;;;;;;;;;5036748;28;20549;-82
2021/09/12 12:30:28;;;;;;;4.13;2.60;;;;;;;;;;5025146;28;20520;-82
2021/09/12 12:33:32;;;;;;;4.90;2.47;;;;;;;;;;5025036;28;20219;-82
2021/09/12 12:36:49;;;;;;;3.60;2.58;;;;;;;;;;5026750;28;20183;-82
2021/09/12 12:40:05;;;;;;;3.20;2.60;;;;;;;;;;5006765;28;20189;-82
2021/09/12 12:43:09;;;;;;;2.70;2.50;;;;;;;;;;5029021;28;20178;-82
2021/09/12 12:46:13;;;;;;;3.35;2.50;;;;;;;;;;5040339;22;20705;-84
2021/09/12 12:49:36;;;;;;;3.53;2.50;;;;;;;;;;4990332;28;20196;-84
2021/09/12 12:52:40;;;;;;;3.28;2.97;;;;;;;;;;4995134;28;20199;-85
2021/09/12 12:55:45;;;;;;;5.57;2.22;;;;;;;;;;4994818;28;20215;-84
2021/09/12 12:58:49;;;;;;;2.40;2.20;;;;;;;;;;4994770;28;20182;-84
2021/09/12 13:01:54;;;;;;;2.65;2.10;;;;;;;;;;4971772;28;20175;-84
2021/09/12 13:04:58;;;;;;;2.70;2.50;;;;;;;;;;4996105;28;20214;-84
2021/09/12 13:08:05;;;;;;;4.13;2.20;;;;;;;;;;4974778;28;20219;-84
2021/09/12 13:11:10;;;;;;;8.77;2.20;;;;;;;;;;4991154;28;20199;-84
2021/09/12 13:14:14;;;;;;;2.40;2.20;;;;;;;;;;5001783;28;20188;-84
2021/09/12 13:17:19;;;;;;;4.40;2.13;;;;;;;;;;5012870;28;20182;-85
2021/09/12 13:20:23;;;;;;;1.92;1.75;;;;;;;;;;5013893;28;20180;-84
2021/09/12 13:23:27;;;;;;;2.30;2.10;;;;;;;;;;5003240;28;20197;-84
2021/09/12 13:26:31;;;;;;;3.00;2.30;;;;;;;;;;5014672;28;20227;-84
2021/09/12 13:29:35;;;;;;;5.13;2.50;;;;;;;;;;5003890;28;20190;-84
2021/09/12 13:32:40;;;;;;;2.65;2.10;;;;;;;;;;5015071;28;20203;-84
2021/09/12 13:35:44;;;;;;;3.28;2.22;;;;;;;;;;5003308;28;20224;-85
2021/09/12 13:38:48;;;;;;;4.10;2.15;;;;;;;;;;5005058;28;20179;-85
2021/09/12 13:41:52;;;;;;;6.38;2.17;;;;;;;;;;5004077;28;20550;-84
2021/09/12 13:44:57;;;;;;;2.90;2.42;;;;;;;;;;4991641;28;20697;-84
2021/09/12 13:48:01;;;;;;;4.45;2.10;;;;;;;;;;4991008;28;20208;-84
2021/09/12 13:51:06;;;;;;;3.28;2.42;;;;;;;;;;5014808;28;20189;-84
2021/09/12 13:54:10;;;;;;;6.30;2.80;;;;;;;;;;5003782;28;20189;-84
2021/09/12 13:57:15;;;;;;;13.95;3.40;;;;;;;;;;5003044;28;20185;-84
2021/09/12 14:00:19;;;;;;;2.65;2.30;;;;;;;;;;5003585;28;20185;-85
2021/09/12 14:03:23;;;;;;;2.38;2.17;;;;;;;;;;5013863;28;20189;-85
2021/09/12 14:06:27;;;;;;;2.58;2.20;;;;;;;;;;5004379;28;20226;-85
2021/09/12 14:09:32;;;;;;;2.53;2.05;;;;;;;;;;4993856;28;20199;-85
2021/09/12 14:12:36;;;;;;;2.10;1.90;;;;;;;;;;4994475;28;20179;-85
2021/09/12 14:15:40;;;;;;;5.82;2.55;;;;;;;;;;5004292;28;20219;-84
2021/09/12 14:18:44;;;;;;;3.78;1.95;;;;;;;;;;5005112;28;20189;-84
2021/09/12 14:21:48;;;;;;;2.65;2.10;;;;;;;;;;5001989;28;20209;-85
2021/09/12 14:24:53;;;;;;;3.17;2.05;;;;;;;;;;4989596;28;20695;-84
2021/09/12 14:27:57;;;;;;;2.20;2.00;;;;;;;;;;5001907;28;20208;-84
2021/09/12 14:31:01;;;;;;;2.92;2.13;;;;;;;;;;5002520;28;20189;-84
2021/09/12 14:34:05;;;;;;;2.40;2.20;;;;;;;;;;4992314;28;20176;-85
2021/09/12 14:37:09;;;;;;;3.78;2.22;;;;;;;;;;5001893;28;20180;-84
2021/09/12 14:40:13;;;;;;;3.05;2.30;;;;;;;;;;4991154;28;20179;-84
2021/09/12 14:43:18;;;;;;;3.08;2.55;;;;;;;;;;5002140;28;20195;-84
2021/09/12 14:46:22;;;;;;;2.40;2.20;;;;;;;;;;5000394;28;20234;-84
2021/09/12 14:49:26;;;;;;;2.88;2.20;;;;;;;;;;5002773;28;20203;-84
2021/09/12 14:52:30;;;;;;;3.97;2.53;;;;;;;;;;4991886;28;20192;-84
2021/09/12 14:55:35;;;;;;;2.53;2.13;;;;;;;;;;5003863;28;20702;-84
2021/09/12 14:58:41;;;;;;;5.18;1.73;;;;;;;;;;5005228;28;20183;-85
2021/09/12 15:01:45;;;;;;;2.85;2.10;;;;;;;;;;5013297;28;20186;-84
2021/09/12 15:04:49;;;;;;;2.67;2.30;;;;;;;;;;5002835;28;20212;-85
2021/09/12 15:07:53;;;;;;;2.30;2.00;;;;;;;;;;4990320;28;20217;-84
2021/09/12 15:10:58;;;;;;;2.80;2.03;;;;;;;;;;5012354;28;20208;-84
2021/09/12 15:14:02;;;;;;;2.72;1.75;;;;;;;;;;4989095;28;20188;-85
2021/09/12 15:17:06;;;;;;;3.67;2.40;;;;;;;;;;4989599;28;20183;-84
2021/09/12 15:20:10;;;;;;;5.28;2.42;;;;;;;;;;5001750;28;20506;-85
2021/09/12 15:23:15;;;;;;;2.50;2.08;;;;;;;;;;4991468;28;20200;-84
2021/09/12 15:26:19;;;;;;;4.32;2.05;;;;;;;;;;5001819;28;20218;-84
2021/09/12 15:29:23;;;;;;;3.20;1.92;;;;;;;;;;4990131;28;20207;-84
2021/09/12 15:32:28;;;;;;;2.42;2.22;;;;;;;;;;5001234;28;20206;-84
2021/09/12 15:35:32;;;;;;;2.53;2.05;;;;;;;;;;4989012;28;20222;-85
2021/09/12 15:38:36;;;;;;;7.55;2.10;;;;;;;;;;5013363;28;20200;-84
2021/09/12 15:41:42;;;;;;;6.50;2.13;;;;;;;;;;5001476;28;20190;-84
2021/09/12 15:44:46;;;;;;;7.93;2.77;;;;;;;;;;4991385;28;20636;-84
2021/09/12 15:47:50;;;;;;;2.37;1.90;;;;;;;;;;5001221;28;20209;-85
2021/09/12 15:50:55;;;;;;;2.90;2.20;;;;;;;;;;5013107;28;20184;-84
2021/09/12 15:53:59;;;;;;;5.40;2.20;;;;;;;;;;5008031;28;20181;-84
2021/09/12 15:57:04;;;;;;;7.37;2.97;;;;;;;;;;4987854;28;20521;-84
2021/09/12 16:00:08;;;;;;;10.53;2.63;;;;;;;;;;4998789;28;20178;-84
2021/09/12 16:03:19;;;;;;;7.50;2.63;;;;;;;;;;5011593;28;20197;-84
2021/09/12 16:06:23;;;;;;;18.60;3.90;;;;;;;;;;4986394;28;20224;-84
2021/09/12 16:09:28;;;;;;;8.07;3.20;;;;;;;;;;4998202;28;20224;-84
2021/09/12 16:12:32;;;;;;;6.97;3.40;;;;;;;;;;4985471;28;20211;-84
2021/09/12 16:15:36;;;;;;;4.63;2.30;;;;;;;;;;4987375;28;20225;-84
2021/09/12 16:18:40;;;;;;;4.73;2.20;;;;;;;;;;4988515;28;20176;-84
2021/09/12 16:21:45;;;;;;;2.30;1.87;;;;;;;;;;4999935;28;20538;-84
2021/09/12 16:24:50;;;;;;;3.70;1.90;;;;;;;;;;4999810;28;20226;-84
2021/09/12 16:27:54;;;;;;;3.80;2.23;;;;;;;;;;4999512;28;20181;-84
2021/09/12 16:30:59;;;;;;;2.17;1.87;;;;;;;;;;5010639;28;20190;-84
2021/09/12 16:34:04;;;;;;;3.40;2.13;;;;;;;;;;4986715;28;20187;-85
2021/09/12 16:37:09;;;;;;;3.20;2.23;;;;;;;;;;4999735;28;20633;-84
2021/09/12 16:40:15;;;;;;;4.03;2.20;;;;;;;;;;4989208;28;20182;-84
2021/09/12 16:43:24;;;;;;;2.97;2.47;;;;;;;;;;4998692;28;20186;-84
2021/09/12 16:49:42;;;;;;;4.07;2.20;;;;;;;;;;4999029;28;20202;-84
2021/09/12 16:52:46;;;;;;;6.47;2.33;;;;;;;;;;4987123;28;20522;-84
2021/09/12 16:55:51;;;;;;;2.87;2.23;;;;;;;;;;4998276;28;20217;-84
2021/09/12 16:58:55;;;;;;;4.50;2.43;;;;;;;;;;4997103;28;20193;-84
2021/09/12 17:02:00;;;;;;;2.67;2.30;;;;;;;;;;4985680;28;20181;-84
2021/09/12 17:05:04;;;;;;;4.63;2.67;;;;;;;;;;5006749;28;20217;-84
2021/09/12 17:08:08;;;;;;;3.33;2.57;;;;;;;;;;4986612;28;20213;-83
2021/09/12 17:11:13;;;;;;;3.10;2.67;;;;;;;;;;5001907;28;20181;-84
2021/09/12 17:14:18;;;;;;;2.60;2.10;;;;;;;;;;4991086;28;20201;-84
2021/09/12 17:17:22;;;;;;;2.97;2.53;;;;;;;;;;5001130;28;20202;-85
2021/09/12 17:20:26;;;;;;;3.93;2.87;;;;;;;;;;5000226;28;20193;-84
2021/09/12 17:23:31;;;;;;;7.60;2.80;;;;;;;;;;5000309;28;20185;-84
2021/09/12 17:26:37;;;;;;;9.27;3.03;;;;;;;;;;4994119;28;20217;-84
2021/09/12 17:29:41;;;;;;;3.27;2.87;;;;;;;;;;4992790;28;20209;-84
2021/09/12 17:32:46;;;;;;;7.87;3.50;;;;;;;;;;4992648;28;20526;-83
2021/09/12 17:35:50;;;;;;;3.13;2.90;;;;;;;;;;4971353;28;20214;-84
2021/09/12 17:38:54;;;;;;;6.37;3.27;;;;;;;;;;5001109;28;20197;-84
2021/09/12 17:41:58;;;;;;;5.80;3.93;;;;;;;;;;5005586;28;20174;-84
2021/09/12 17:45:04;;;;;;;8.00;4.13;;;;;;;;;;5014978;28;20224;-83
2021/09/12 17:48:09;;;;;;;4.33;3.30;;;;;;;;;;5005904;28;20526;-84
2021/09/12 17:51:13;;;;;;;3.50;3.20;;;;;;;;;;5003405;28;20189;-84
2021/09/12 17:54:18;;;;;;;7.33;3.33;;;;;;;;;;4991637;28;20178;-84
2021/09/12 17:57:22;;;;;;;7.77;4.00;;;;;;;;;;4991452;28;20185;-84
2021/09/12 18:00:26;;;;;;;4.50;4.10;;;;;;;;;;5003583;28;20186;-84
2021/09/12 18:03:31;;;;;;;7.43;3.90;;;;;;;;;;4993936;28;20181;-83
2021/09/12 18:06:35;;;;;;;5.77;3.83;;;;;;;;;;4993960;28;20213;-83
2021/09/12 18:09:39;;;;;;;6.67;3.43;;;;;;;;;;4992056;28;20205;-84
2021/09/12 18:12:43;;;;;;;6.10;3.67;;;;;;;;;;5000269;28;20201;-84
2021/09/12 18:15:48;;;;;;;7.77;4.03;;;;;;;;;;4988874;28;20217;-83
2021/09/12 18:18:52;;;;;;;4.27;3.83;;;;;;;;;;5010838;28;20189;-83